SAZM

Ástor Piazzola International Airport

Airport
ICAO code
SAZM
IATA Code
MDQ
Summary
ICAO Region
CARSAM
ICAO Territory
Location

Mar Del Plata, Buenos Aires

Serving
Mar Del Plata
Elevation
72 ft
Coordinates
37° 56' 3" S , 57° 34' 24" W
Metar
SAZM 240700Z 16009KT CAVOK 17/09 Q1023

Runways

Designator Length Width Surface Rops
13/31 2200 45 ASP Yes/Yes

Airport map

Aerial View

SKYbrary Partners:

Safety knowledge contributed by: